Araucaria, Brazil
Current Conditions -  °F | °C
As of 2:00 PM on Saturday 20 Dec 2014 (Local Time) from SBCT Reporting Station
Broken Clouds Broken Clouds  
Wind Chill: 29°   Ceiling: 4000
Heat Index: 30°   Visibility: 6mi
Dew Point: 18°   Wind: 12mph
Humidity: 51%   Direction: 310°NW
Pressure: 29.91"   Gusts: 23mph
Location:  25.58°S, 49.4°W
Report Text: SBCT 201600Z 31010G20KT 9999 BKN040 29/18 Q1013
Loading
Personal Weather Stations






























Interactive Weather Map New forecast layout! Learn more

10-Day Weather Forecast

Advertisements
Track Severe Weather on mobile